sensor_id;sensor_type;location;lat;lon;timestamp;pressure;altitude;pressure_sealevel;temperature;humidity
7309;BME280;3695;53.330;9.876;2022-07-01T00:01:46;107315.81;;;19.50;56.43
7309;BME280;3695;53.330;9.876;2022-07-01T00:04:13;106950.81;;;19.46;55.88
7309;BME280;3695;53.330;9.876;2022-07-01T00:06:39;106423.25;;;19.34;55.55
7309;BME280;3695;53.330;9.876;2022-07-01T00:09:06;106436.13;;;19.24;55.23
7309;BME280;3695;53.330;9.876;2022-07-01T00:11:34;106292.59;;;19.29;55.03
7309;BME280;3695;53.330;9.876;2022-07-01T00:14:00;106482.34;;;19.30;54.93
7309;BME280;3695;53.330;9.876;2022-07-01T00:16:26;106602.72;;;19.49;54.82
7309;BME280;3695;53.330;9.876;2022-07-01T00:18:54;106444.91;;;19.48;54.82
7309;BME280;3695;53.330;9.876;2022-07-01T00:21:21;106172.06;;;19.52;54.81
7309;BME280;3695;53.330;9.876;2022-07-01T00:23:47;106054.13;;;19.57;54.83
7309;BME280;3695;53.330;9.876;2022-07-01T00:26:14;105963.34;;;19.65;54.79
7309;BME280;3695;53.330;9.876;2022-07-01T00:28:40;106000.41;;;19.70;54.67
7309;BME280;3695;53.330;9.876;2022-07-01T00:31:07;105798.38;;;19.54;54.68
7309;BME280;3695;53.330;9.876;2022-07-01T00:33:33;105628.53;;;19.36;54.68
7309;BME280;3695;53.330;9.876;2022-07-01T00:36:01;105894.16;;;19.50;54.57
7309;BME280;3695;53.330;9.876;2022-07-01T00:38:27;105667.88;;;19.46;54.52
7309;BME280;3695;53.330;9.876;2022-07-01T00:40:54;105842.72;;;19.50;54.45
7309;BME280;3695;53.330;9.876;2022-07-01T00:43:21;105674.00;;;19.40;54.42
7309;BME280;3695;53.330;9.876;2022-07-01T00:45:49;105845.78;;;19.47;54.35
7309;BME280;3695;53.330;9.876;2022-07-01T00:48:15;105756.75;;;19.57;54.24
7309;BME280;3695;53.330;9.876;2022-07-01T00:50:42;105697.81;;;19.67;54.16
7309;BME280;3695;53.330;9.876;2022-07-01T00:53:11;106019.34;;;19.83;54.04
7309;BME280;3695;53.330;9.876;2022-07-01T00:55:37;106083.00;;;19.80;53.97
7309;BME280;3695;53.330;9.876;2022-07-01T00:58:04;106041.28;;;19.75;53.90
7309;BME280;3695;53.330;9.876;2022-07-01T01:00:30;106235.09;;;19.74;53.79
7309;BME280;3695;53.330;9.876;2022-07-01T01:02:57;106075.56;;;19.53;53.77
7309;BME280;3695;53.330;9.876;2022-07-01T01:05:23;106404.69;;;19.57;53.63
7309;BME280;3695;53.330;9.876;2022-07-01T01:07:50;106467.75;;;19.70;53.51
7309;BME280;3695;53.330;9.876;2022-07-01T01:10:19;106154.09;;;19.28;53.55
7309;BME280;3695;53.330;9.876;2022-07-01T01:12:45;106531.97;;;19.40;53.41
7309;BME280;3695;53.330;9.876;2022-07-01T01:15:17;106665.13;;;19.60;53.26
7309;BME280;3695;53.330;9.876;2022-07-01T01:17:44;106525.97;;;19.56;53.19
7309;BME280;3695;53.330;9.876;2022-07-01T01:20:14;106412.59;;;19.50;53.17
7309;BME280;3695;53.330;9.876;2022-07-01T01:22:42;106504.69;;;19.58;53.10
7309;BME280;3695;53.330;9.876;2022-07-01T01:25:09;106394.78;;;19.45;53.07
7309;BME280;3695;53.330;9.876;2022-07-01T01:27:36;106682.19;;;19.54;52.97
7309;BME280;3695;53.330;9.876;2022-07-01T01:30:03;106816.13;;;19.55;52.91
7309;BME280;3695;53.330;9.876;2022-07-01T01:32:30;107008.38;;;19.61;52.82
7309;BME280;3695;53.330;9.876;2022-07-01T01:34:57;107020.16;;;19.52;52.81
7309;BME280;3695;53.330;9.876;2022-07-01T01:37:23;107301.34;;;19.60;52.71
7309;BME280;3695;53.330;9.876;2022-07-01T01:39:51;107276.56;;;19.60;52.64
7309;BME280;3695;53.330;9.876;2022-07-01T01:42:17;107339.41;;;19.55;52.65
7309;BME280;3695;53.330;9.876;2022-07-01T01:44:44;106935.03;;;19.37;52.64
7309;BME280;3695;53.330;9.876;2022-07-01T01:47:10;107019.88;;;19.32;52.60
7309;BME280;3695;53.330;9.876;2022-07-01T01:49:37;106956.59;;;19.10;52.52
7309;BME280;3695;53.330;9.876;2022-07-01T01:52:04;107345.34;;;19.25;52.46
7309;BME280;3695;53.330;9.876;2022-07-01T01:54:32;107498.38;;;19.53;52.41
7309;BME280;3695;53.330;9.876;2022-07-01T01:57:02;107395.69;;;19.50;52.39
7309;BME280;3695;53.330;9.876;2022-07-01T01:59:29;107452.84;;;19.60;52.36
7309;BME280;3695;53.330;9.876;2022-07-01T02:01:56;107576.00;;;19.70;52.33
7309;BME280;3695;53.330;9.876;2022-07-01T02:04:23;107446.75;;;19.67;52.31
7309;BME280;3695;53.330;9.876;2022-07-01T02:06:49;107444.81;;;19.57;52.31
7309;BME280;3695;53.330;9.876;2022-07-01T02:09:16;107473.53;;;19.65;52.28
7309;BME280;3695;53.330;9.876;2022-07-01T02:11:42;107106.53;;;19.39;52.26
7309;BME280;3695;53.330;9.876;2022-07-01T02:14:10;107214.41;;;19.44;52.26
7309;BME280;3695;53.330;9.876;2022-07-01T02:16:37;107355.63;;;19.46;52.24
7309;BME280;3695;53.330;9.876;2022-07-01T02:19:03;107369.16;;;19.49;52.23
7309;BME280;3695;53.330;9.876;2022-07-01T02:21:30;107376.69;;;19.35;52.22
7309;BME280;3695;53.330;9.876;2022-07-01T02:23:56;107326.09;;;19.25;52.18
7309;BME280;3695;53.330;9.876;2022-07-01T02:26:22;107862.97;;;19.37;52.17
7309;BME280;3695;53.330;9.876;2022-07-01T02:28:49;107739.91;;;19.12;52.15
7309;BME280;3695;53.330;9.876;2022-07-01T02:31:17;107601.63;;;18.96;52.15
7309;BME280;3695;53.330;9.876;2022-07-01T02:33:43;107781.50;;;18.95;52.14
7309;BME280;3695;53.330;9.876;2022-07-01T02:36:10;108108.22;;;19.22;52.12
7309;BME280;3695;53.330;9.876;2022-07-01T02:38:36;107941.19;;;19.08;52.10
7309;BME280;3695;53.330;9.876;2022-07-01T02:41:03;108398.44;;;19.33;52.11
7309;BME280;3695;53.330;9.876;2022-07-01T02:43:30;108509.50;;;19.49;52.10
7309;BME280;3695;53.330;9.876;2022-07-01T02:45:56;108115.97;;;19.15;52.11
7309;BME280;3695;53.330;9.876;2022-07-01T02:48:24;108172.72;;;19.17;52.10
7309;BME280;3695;53.330;9.876;2022-07-01T02:50:50;108387.00;;;19.25;52.09
7309;BME280;3695;53.330;9.876;2022-07-01T02:53:17;108225.31;;;19.13;52.08
7309;BME280;3695;53.330;9.876;2022-07-01T02:55:43;108543.09;;;19.25;52.08
7309;BME280;3695;53.330;9.876;2022-07-01T02:58:10;108478.97;;;19.23;52.09
7309;BME280;3695;53.330;9.876;2022-07-01T03:00:36;108657.63;;;19.29;52.09
7309;BME280;3695;53.330;9.876;2022-07-01T03:03:03;108636.00;;;19.21;52.08
7309;BME280;3695;53.330;9.876;2022-07-01T03:05:31;108532.78;;;19.28;52.09
7309;BME280;3695;53.330;9.876;2022-07-01T03:07:57;108403.63;;;19.24;52.10
7309;BME280;3695;53.330;9.876;2022-07-01T03:10:24;108268.16;;;19.03;52.12
7309;BME280;3695;53.330;9.876;2022-07-01T03:12:50;108176.34;;;19.04;52.15
7309;BME280;3695;53.330;9.876;2022-07-01T03:15:16;108303.00;;;19.18;52.19
7309;BME280;3695;53.330;9.876;2022-07-01T03:17:44;107807.59;;;18.75;52.19
7309;BME280;3695;53.330;9.876;2022-07-01T03:20:12;108102.59;;;19.09;52.20
7309;BME280;3695;53.330;9.876;2022-07-01T03:22:43;107765.97;;;18.67;52.20
7309;BME280;3695;53.330;9.876;2022-07-01T03:25:10;107907.41;;;18.77;52.19
7309;BME280;3695;53.330;9.876;2022-07-01T03:27:36;107969.31;;;18.84;52.19
7309;BME280;3695;53.330;9.876;2022-07-01T03:30:05;108046.66;;;18.80;52.20
7309;BME280;3695;53.330;9.876;2022-07-01T03:32:32;107975.69;;;18.56;52.21
7309;BME280;3695;53.330;9.876;2022-07-01T03:34:59;108061.13;;;18.53;52.21
7309;BME280;3695;53.330;9.876;2022-07-01T03:37:25;108081.66;;;18.48;52.23
7309;BME280;3695;53.330;9.876;2022-07-01T03:39:53;108002.44;;;18.39;52.25
7309;BME280;3695;53.330;9.876;2022-07-01T03:42:19;108135.94;;;18.44;52.26
7309;BME280;3695;53.330;9.876;2022-07-01T03:44:46;108116.88;;;18.41;52.27
7309;BME280;3695;53.330;9.876;2022-07-01T03:47:12;108261.72;;;18.41;52.30
7309;BME280;3695;53.330;9.876;2022-07-01T03:49:39;109290.47;;;18.61;52.33
7309;BME280;3695;53.330;9.876;2022-07-01T03:52:06;109305.84;;;18.67;52.35
7309;BME280;3695;53.330;9.876;2022-07-01T03:54:32;109237.09;;;18.65;52.36
7309;BME280;3695;53.330;9.876;2022-07-01T03:57:01;109079.16;;;18.49;52.40
7309;BME280;3695;53.330;9.876;2022-07-01T03:59:29;108969.00;;;18.32;52.42
7309;BME280;3695;53.330;9.876;2022-07-01T04:01:56;109081.25;;;18.42;52.40
7309;BME280;3695;53.330;9.876;2022-07-01T04:04:24;109065.25;;;18.32;52.41
7309;BME280;3695;53.330;9.876;2022-07-01T04:06:51;108951.44;;;18.15;52.42
7309;BME280;3695;53.330;9.876;2022-07-01T04:09:18;109094.13;;;18.21;52.41
7309;BME280;3695;53.330;9.876;2022-07-01T04:11:46;109260.88;;;18.44;52.40
7309;BME280;3695;53.330;9.876;2022-07-01T04:14:16;108883.69;;;17.94;52.45
7309;BME280;3695;53.330;9.876;2022-07-01T04:16:43;109061.81;;;18.06;52.41
7309;BME280;3695;53.330;9.876;2022-07-01T04:19:10;109031.03;;;17.98;52.42
7309;BME280;3695;53.330;9.876;2022-07-01T04:21:38;109079.09;;;17.88;52.45
7309;BME280;3695;53.330;9.876;2022-07-01T04:24:22;109135.47;;;17.76;52.48
7309;BME280;3695;53.330;9.876;2022-07-01T04:26:49;109152.38;;;17.66;52.52
7309;BME280;3695;53.330;9.876;2022-07-01T04:29:18;109156.28;;;17.60;52.51
7309;BME280;3695;53.330;9.876;2022-07-01T04:31:45;109219.94;;;17.71;52.54
7309;BME280;3695;53.330;9.876;2022-07-01T04:34:19;109217.78;;;17.56;52.51
7309;BME280;3695;53.330;9.876;2022-07-01T04:36:45;109290.50;;;17.71;52.48
7309;BME280;3695;53.330;9.876;2022-07-01T04:39:12;109283.19;;;17.45;52.49
7309;BME280;3695;53.330;9.876;2022-07-01T04:41:38;109372.56;;;17.55;52.51
7309;BME280;3695;53.330;9.876;2022-07-01T04:44:24;109541.78;;;17.60;52.54
7309;BME280;3695;53.330;9.876;2022-07-01T04:46:50;109321.56;;;17.23;52.57
7309;BME280;3695;53.330;9.876;2022-07-01T04:49:17;109403.81;;;17.26;52.52
7309;BME280;3695;53.330;9.876;2022-07-01T04:51:44;109405.28;;;17.36;52.51
7309;BME280;3695;53.330;9.876;2022-07-01T04:54:10;109332.03;;;17.37;52.56
7309;BME280;3695;53.330;9.876;2022-07-01T04:56:38;109962.06;;;17.31;52.58
7309;BME280;3695;53.330;9.876;2022-07-01T04:59:04;110082.13;;;17.26;52.65
7309;BME280;3695;53.330;9.876;2022-07-01T05:01:32;109941.53;;;17.12;52.67
7309;BME280;3695;53.330;9.876;2022-07-01T05:03:59;109597.66;;;16.74;52.70
7309;BME280;3695;53.330;9.876;2022-07-01T05:06:26;109706.88;;;16.92;52.66
7309;BME280;3695;53.330;9.876;2022-07-01T05:08:53;109677.09;;;16.79;52.63
7309;BME280;3695;53.330;9.876;2022-07-01T05:11:19;109674.19;;;16.83;52.65
7309;BME280;3695;53.330;9.876;2022-07-01T05:13:46;109843.03;;;16.98;52.69
7309;BME280;3695;53.330;9.876;2022-07-01T05:16:12;109774.19;;;16.73;52.65
7309;BME280;3695;53.330;9.876;2022-07-01T05:18:40;109731.47;;;16.95;52.64
7309;BME280;3695;53.330;9.876;2022-07-01T05:21:24;109616.97;;;16.70;52.66
7309;BME280;3695;53.330;9.876;2022-07-01T05:24:08;109669.56;;;16.85;52.61
7309;BME280;3695;53.330;9.876;2022-07-01T05:26:35;109686.88;;;16.87;52.61
7309;BME280;3695;53.330;9.876;2022-07-01T05:29:03;109658.31;;;16.94;52.62
7309;BME280;3695;53.330;9.876;2022-07-01T05:31:29;109311.94;;;16.57;52.64
7309;BME280;3695;53.330;9.876;2022-07-01T05:33:57;109267.41;;;16.49;52.64
7309;BME280;3695;53.330;9.876;2022-07-01T05:36:24;109300.81;;;16.61;52.65
7309;BME280;3695;53.330;9.876;2022-07-01T05:38:50;109309.66;;;16.71;52.61
7309;BME280;3695;53.330;9.876;2022-07-01T05:41:17;109133.88;;;16.51;52.64
7309;BME280;3695;53.330;9.876;2022-07-01T05:43:44;109469.91;;;16.64;52.65
7309;BME280;3695;53.330;9.876;2022-07-01T05:46:10;109426.47;;;16.49;52.63
7309;BME280;3695;53.330;9.876;2022-07-01T05:48:37;109257.31;;;16.23;52.57
7309;BME280;3695;53.330;9.876;2022-07-01T05:51:05;109316.75;;;16.49;52.56
7309;BME280;3695;53.330;9.876;2022-07-01T05:53:31;109372.81;;;16.70;52.58
7309;BME280;3695;53.330;9.876;2022-07-01T05:55:57;109305.28;;;16.65;52.62
7309;BME280;3695;53.330;9.876;2022-07-01T05:58:24;110145.72;;;16.63;52.58
7309;BME280;3695;53.330;9.876;2022-07-01T06:00:50;109995.50;;;16.32;52.58
7309;BME280;3695;53.330;9.876;2022-07-01T06:03:17;109949.94;;;16.25;52.57
7309;BME280;3695;53.330;9.876;2022-07-01T06:05:44;109987.16;;;16.37;52.54
7309;BME280;3695;53.330;9.876;2022-07-01T06:08:11;109968.75;;;16.42;52.53
7309;BME280;3695;53.330;9.876;2022-07-01T06:10:38;109907.66;;;16.35;52.55
7309;BME280;3695;53.330;9.876;2022-07-01T06:13:05;109822.66;;;16.35;52.60
7309;BME280;3695;53.330;9.876;2022-07-01T06:15:32;109694.34;;;16.14;52.65
7309;BME280;3695;53.330;9.876;2022-07-01T06:17:59;109606.03;;;16.01;52.67
7309;BME280;3695;53.330;9.876;2022-07-01T06:20:25;109621.09;;;16.19;52.69
7309;BME280;3695;53.330;9.876;2022-07-01T06:22:52;109563.28;;;16.28;52.73
7309;BME280;3695;53.330;9.876;2022-07-01T06:25:20;109564.66;;;16.43;52.74
7309;BME280;3695;53.330;9.876;2022-07-01T06:27:46;109396.41;;;16.16;52.80
7309;BME280;3695;53.330;9.876;2022-07-01T06:30:13;109374.91;;;16.32;52.78
7309;BME280;3695;53.330;9.876;2022-07-01T06:32:40;109274.47;;;16.00;52.79
7309;BME280;3695;53.330;9.876;2022-07-01T06:35:07;109311.78;;;16.04;52.76
7309;BME280;3695;53.330;9.876;2022-07-01T06:37:34;109381.38;;;16.29;52.72
7309;BME280;3695;53.330;9.876;2022-07-01T06:40:02;109412.19;;;16.37;52.72
7309;BME280;3695;53.330;9.876;2022-07-01T06:42:30;109283.09;;;16.17;52.79
7309;BME280;3695;53.330;9.876;2022-07-01T06:44:56;109151.13;;;15.73;52.85
7309;BME280;3695;53.330;9.876;2022-07-01T06:47:23;109325.78;;;16.24;52.78
7309;BME280;3695;53.330;9.876;2022-07-01T06:49:49;109337.09;;;16.42;52.78
7309;BME280;3695;53.330;9.876;2022-07-01T06:52:16;109293.03;;;16.48;52.80
7309;BME280;3695;53.330;9.876;2022-07-01T06:54:42;109269.34;;;16.45;52.83
7309;BME280;3695;53.330;9.876;2022-07-01T06:57:09;109021.03;;;15.87;52.98
7309;BME280;3695;53.330;9.876;2022-07-01T06:59:37;109142.97;;;16.26;52.96
7309;BME280;3695;53.330;9.876;2022-07-01T07:02:04;109136.53;;;16.27;52.93
7309;BME280;3695;53.330;9.876;2022-07-01T07:04:32;109130.63;;;16.40;52.93
7309;BME280;3695;53.330;9.876;2022-07-01T07:06:59;109101.19;;;16.45;52.96
7309;BME280;3695;53.330;9.876;2022-07-01T07:09:26;108909.31;;;15.95;53.11
7309;BME280;3695;53.330;9.876;2022-07-01T07:11:52;109026.66;;;16.33;52.99
7309;BME280;3695;53.330;9.876;2022-07-01T07:14:19;108920.03;;;16.26;53.08
7309;BME280;3695;53.330;9.876;2022-07-01T07:16:46;109001.34;;;16.50;53.02
7309;BME280;3695;53.330;9.876;2022-07-01T07:19:13;108933.09;;;16.43;53.08
7309;BME280;3695;53.330;9.876;2022-07-01T07:21:40;108986.00;;;16.70;53.03
7309;BME280;3695;53.330;9.876;2022-07-01T07:24:06;108807.34;;;16.33;53.20
7309;BME280;3695;53.330;9.876;2022-07-01T07:26:33;108701.31;;;16.34;53.26
7309;BME280;3695;53.330;9.876;2022-07-01T07:28:59;108542.53;;;16.29;53.33
7309;BME280;3695;53.330;9.876;2022-07-01T07:31:26;108480.59;;;16.25;53.37
7309;BME280;3695;53.330;9.876;2022-07-01T07:33:53;108459.63;;;16.24;53.42
7309;BME280;3695;53.330;9.876;2022-07-01T07:36:20;108495.38;;;16.42;53.38
7309;BME280;3695;53.330;9.876;2022-07-01T07:38:47;108476.97;;;16.64;53.40
7309;BME280;3695;53.330;9.876;2022-07-01T07:41:14;108393.94;;;16.42;53.63
7309;BME280;3695;53.330;9.876;2022-07-01T07:43:40;108378.38;;;16.42;53.73
7309;BME280;3695;53.330;9.876;2022-07-01T07:46:06;108417.88;;;16.77;53.75
7309;BME280;3695;53.330;9.876;2022-07-01T07:48:33;108326.78;;;16.71;54.02
7309;BME280;3695;53.330;9.876;2022-07-01T07:51:01;108390.28;;;16.80;53.87
7309;BME280;3695;53.330;9.876;2022-07-01T07:53:27;108250.38;;;16.25;54.25
7309;BME280;3695;53.330;9.876;2022-07-01T07:55:54;108323.16;;;16.50;54.13
7309;BME280;3695;53.330;9.876;2022-07-01T07:58:20;108328.81;;;16.47;54.10
7309;BME280;3695;53.330;9.876;2022-07-01T08:00:47;108344.28;;;16.48;53.97
7309;BME280;3695;53.330;9.876;2022-07-01T08:03:13;108325.41;;;16.42;54.02
7309;BME280;3695;53.330;9.876;2022-07-01T08:05:39;108380.50;;;16.75;53.87
7309;BME280;3695;53.330;9.876;2022-07-01T08:08:07;108177.41;;;16.23;54.39
7309;BME280;3695;53.330;9.876;2022-07-01T08:10:34;108268.44;;;16.67;54.07
7309;BME280;3695;53.330;9.876;2022-07-01T08:13:00;108170.81;;;16.63;54.28
7309;BME280;3695;53.330;9.876;2022-07-01T08:15:29;107954.47;;;16.06;54.51
7309;BME280;3695;53.330;9.876;2022-07-01T08:17:56;108053.13;;;16.41;54.28
7309;BME280;3695;53.330;9.876;2022-07-01T08:20:22;108005.56;;;16.59;54.50
7309;BME280;3695;53.330;9.876;2022-07-01T08:22:49;107938.41;;;16.84;54.58
7309;BME280;3695;53.330;9.876;2022-07-01T08:25:17;107636.31;;;16.44;55.26
7309;BME280;3695;53.330;9.876;2022-07-01T08:27:43;107660.31;;;16.86;54.98
7309;BME280;3695;53.330;9.876;2022-07-01T08:30:11;107490.38;;;16.55;55.24
7309;BME280;3695;53.330;9.876;2022-07-01T08:32:37;107445.28;;;16.60;55.12
7309;BME280;3695;53.330;9.876;2022-07-01T08:35:04;107371.06;;;16.63;55.30
7309;BME280;3695;53.330;9.876;2022-07-01T08:37:31;107282.66;;;16.74;55.36
7309;BME280;3695;53.330;9.876;2022-07-01T08:39:57;107124.94;;;16.54;55.53
7309;BME280;3695;53.330;9.876;2022-07-01T08:42:25;107028.41;;;16.36;55.69
7309;BME280;3695;53.330;9.876;2022-07-01T08:44:52;106847.25;;;16.16;55.96
7309;BME280;3695;53.330;9.876;2022-07-01T08:47:18;106920.03;;;16.32;55.74
7309;BME280;3695;53.330;9.876;2022-07-01T08:49:45;106887.78;;;16.49;55.50
7309;BME280;3695;53.330;9.876;2022-07-01T08:52:12;106896.44;;;16.55;55.54
7309;BME280;3695;53.330;9.876;2022-07-01T08:54:38;106849.03;;;16.67;55.45
7309;BME280;3695;53.330;9.876;2022-07-01T08:57:06;106645.97;;;16.21;55.81
7309;BME280;3695;53.330;9.876;2022-07-01T08:59:35;106785.19;;;16.53;55.66
7309;BME280;3695;53.330;9.876;2022-07-01T09:02:03;106659.81;;;16.44;55.85
7309;BME280;3695;53.330;9.876;2022-07-01T09:04:30;106783.63;;;16.87;55.61
7309;BME280;3695;53.330;9.876;2022-07-01T09:07:02;106652.22;;;16.60;55.71
7309;BME280;3695;53.330;9.876;2022-07-01T09:09:33;106721.38;;;16.76;55.66
7309;BME280;3695;53.330;9.876;2022-07-01T09:12:01;106540.13;;;16.44;56.09
7309;BME280;3695;53.330;9.876;2022-07-01T09:14:28;106261.47;;;16.00;56.42
7309;BME280;3695;53.330;9.876;2022-07-01T09:16:58;106492.69;;;16.55;55.99
7309;BME280;3695;53.330;9.876;2022-07-01T09:19:25;106302.47;;;16.13;56.39
7309;BME280;3695;53.330;9.876;2022-07-01T09:21:53;106234.38;;;16.19;56.33
7309;BME280;3695;53.330;9.876;2022-07-01T09:24:24;106224.28;;;16.20;56.46
7309;BME280;3695;53.330;9.876;2022-07-01T09:26:52;106231.38;;;16.33;56.32
7309;BME280;3695;53.330;9.876;2022-07-01T09:29:19;106189.66;;;16.41;56.48
7309;BME280;3695;53.330;9.876;2022-07-01T09:31:48;106120.41;;;16.61;56.51
7309;BME280;3695;53.330;9.876;2022-07-01T09:34:16;105939.69;;;16.49;56.73
7309;BME280;3695;53.330;9.876;2022-07-01T09:36:51;105922.72;;;16.55;56.83
7309;BME280;3695;53.330;9.876;2022-07-01T09:39:17;105868.97;;;16.75;56.95
7309;BME280;3695;53.330;9.876;2022-07-01T09:41:44;105752.16;;;16.93;56.96
7309;BME280;3695;53.330;9.876;2022-07-01T09:44:10;105713.63;;;16.94;56.81
7309;BME280;3695;53.330;9.876;2022-07-01T09:46:37;105686.06;;;16.96;56.93
7309;BME280;3695;53.330;9.876;2022-07-01T09:49:03;105476.47;;;16.71;57.33
7309;BME280;3695;53.330;9.876;2022-07-01T09:51:31;105388.78;;;16.71;57.27
7309;BME280;3695;53.330;9.876;2022-07-01T09:53:58;105253.44;;;16.25;57.50
7309;BME280;3695;53.330;9.876;2022-07-01T09:56:24;105381.69;;;16.59;57.26
7309;BME280;3695;53.330;9.876;2022-07-01T09:58:51;105471.13;;;16.79;57.10
7309;BME280;3695;53.330;9.876;2022-07-01T10:01:17;105325.75;;;16.52;57.28
7309;BME280;3695;53.330;9.876;2022-07-01T10:03:45;105235.53;;;16.41;57.50
7309;BME280;3695;53.330;9.876;2022-07-01T10:09:35;105236.72;;;16.28;57.35
7309;BME280;3695;53.330;9.876;2022-07-01T10:12:17;105175.63;;;16.28;57.24
7309;BME280;3695;53.330;9.876;2022-07-01T10:14:48;105185.03;;;16.16;57.47
7309;BME280;3695;53.330;9.876;2022-07-01T10:17:26;105339.31;;;16.44;57.19
7309;BME280;3695;53.330;9.876;2022-07-01T10:19:54;105303.88;;;16.32;57.20
7309;BME280;3695;53.330;9.876;2022-07-01T10:22:26;105355.19;;;16.40;57.10
7309;BME280;3695;53.330;9.876;2022-07-01T10:24:54;105337.88;;;16.40;57.20
7309;BME280;3695;53.330;9.876;2022-07-01T10:27:23;105213.94;;;16.28;57.27
7309;BME280;3695;53.330;9.876;2022-07-01T10:30:11;105176.66;;;16.17;57.39
7309;BME280;3695;53.330;9.876;2022-07-01T10:32:42;105312.22;;;16.41;57.27
7309;BME280;3695;53.330;9.876;2022-07-01T10:35:12;105418.03;;;16.61;57.16
7309;BME280;3695;53.330;9.876;2022-07-01T10:37:56;105369.88;;;16.49;57.18
7309;BME280;3695;53.330;9.876;2022-07-01T10:40:39;105250.75;;;16.62;57.09
7309;BME280;3695;53.330;9.876;2022-07-01T10:43:06;105308.59;;;16.50;57.26
7309;BME280;3695;53.330;9.876;2022-07-01T10:45:41;105339.88;;;16.57;57.31
7309;BME280;3695;53.330;9.876;2022-07-01T10:48:18;105208.38;;;16.57;57.58
7309;BME280;3695;53.330;9.876;2022-07-01T10:50:46;105018.16;;;16.42;57.75
7309;BME280;3695;53.330;9.876;2022-07-01T10:53:14;105140.03;;;16.55;57.77
7309;BME280;3695;53.330;9.876;2022-07-01T10:55:45;105108.13;;;16.36;57.86
7309;BME280;3695;53.330;9.876;2022-07-01T10:58:12;105129.25;;;16.81;57.67
7309;BME280;3695;53.330;9.876;2022-07-01T11:00:41;105110.13;;;16.89;57.88
7309;BME280;3695;53.330;9.876;2022-07-01T11:03:10;105083.66;;;16.80;57.85
7309;BME280;3695;53.330;9.876;2022-07-01T11:05:37;104942.44;;;16.68;57.77
7309;BME280;3695;53.330;9.876;2022-07-01T11:08:05;104946.84;;;16.51;57.90
7309;BME280;3695;53.330;9.876;2022-07-01T11:10:32;105122.91;;;16.81;57.64
7309;BME280;3695;53.330;9.876;2022-07-01T11:13:00;105019.88;;;16.70;57.67
7309;BME280;3695;53.330;9.876;2022-07-01T11:15:28;104926.13;;;16.49;57.95
7309;BME280;3695;53.330;9.876;2022-07-01T11:17:56;104956.97;;;16.86;57.77
7309;BME280;3695;53.330;9.876;2022-07-01T11:20:24;104935.38;;;16.83;57.48
7309;BME280;3695;53.330;9.876;2022-07-01T11:22:51;104761.13;;;16.55;57.78
7309;BME280;3695;53.330;9.876;2022-07-01T11:25:19;104901.03;;;16.97;57.48
7309;BME280;3695;53.330;9.876;2022-07-01T11:27:47;104999.09;;;17.03;57.54
7309;BME280;3695;53.330;9.876;2022-07-01T11:30:16;104772.28;;;16.79;57.68
7309;BME280;3695;53.330;9.876;2022-07-01T11:32:45;104846.38;;;16.70;57.67
7309;BME280;3695;53.330;9.876;2022-07-01T11:35:14;104881.94;;;17.05;57.41
7309;BME280;3695;53.330;9.876;2022-07-01T11:38:10;104978.25;;;17.10;57.25
7309;BME280;3695;53.330;9.876;2022-07-01T11:40:55;105004.22;;;17.24;57.14
7309;BME280;3695;53.330;9.876;2022-07-01T11:43:24;105091.06;;;17.59;56.97
7309;BME280;3695;53.330;9.876;2022-07-01T11:45:53;104874.59;;;17.14;56.99
7309;BME280;3695;53.330;9.876;2022-07-01T11:48:33;105042.94;;;17.21;56.72
7309;BME280;3695;53.330;9.876;2022-07-01T11:51:05;104807.78;;;17.15;56.60
7309;BME280;3695;53.330;9.876;2022-07-01T11:53:31;104830.56;;;17.15;56.40
7309;BME280;3695;53.330;9.876;2022-07-01T11:55:58;105012.72;;;17.13;55.96
7309;BME280;3695;53.330;9.876;2022-07-01T11:58:43;104831.31;;;16.99;55.91
7309;BME280;3695;53.330;9.876;2022-07-01T12:01:11;105172.91;;;17.10;55.98
7309;BME280;3695;53.330;9.876;2022-07-01T12:03:37;105395.50;;;17.60;56.00
7309;BME280;3695;53.330;9.876;2022-07-01T12:06:05;105215.91;;;17.73;56.02
7309;BME280;3695;53.330;9.876;2022-07-01T12:08:31;105198.88;;;17.51;56.14
7309;BME280;3695;53.330;9.876;2022-07-01T12:10:58;105448.06;;;17.93;56.20
7309;BME280;3695;53.330;9.876;2022-07-01T12:13:26;104628.88;;;17.29;56.68
7309;BME280;3695;53.330;9.876;2022-07-01T12:15:53;105330.31;;;17.90;56.60
7309;BME280;3695;53.330;9.876;2022-07-01T12:18:21;105335.72;;;17.82;56.76
7309;BME280;3695;53.330;9.876;2022-07-01T12:20:49;105269.81;;;17.64;57.32
7309;BME280;3695;53.330;9.876;2022-07-01T12:23:16;105174.25;;;17.59;57.87
7309;BME280;3695;53.330;9.876;2022-07-01T12:25:46;105434.09;;;17.86;58.11
7309;BME280;3695;53.330;9.876;2022-07-01T12:28:25;104921.72;;;17.69;58.50
7309;BME280;3695;53.330;9.876;2022-07-01T12:30:59;105550.94;;;18.26;58.52
7309;BME280;3695;53.330;9.876;2022-07-01T12:33:27;105575.75;;;18.34;59.26
7309;BME280;3695;53.330;9.876;2022-07-01T12:35:54;104594.94;;;18.03;60.13
7309;BME280;3695;53.330;9.876;2022-07-01T12:38:21;105352.47;;;18.06;60.56
7309;BME280;3695;53.330;9.876;2022-07-01T12:40:47;105552.97;;;18.24;61.16
7309;BME280;3695;53.330;9.876;2022-07-01T12:43:27;105521.84;;;18.51;62.03
7309;BME280;3695;53.330;9.876;2022-07-01T12:45:56;105291.72;;;18.09;64.11
7309;BME280;3695;53.330;9.876;2022-07-01T12:48:22;105270.94;;;17.89;65.93
7309;BME280;3695;53.330;9.876;2022-07-01T12:50:53;105124.25;;;17.91;66.74
7309;BME280;3695;53.330;9.876;2022-07-01T12:53:21;105567.03;;;18.39;65.37
7309;BME280;3695;53.330;9.876;2022-07-01T12:55:49;105600.44;;;18.71;64.88
7309;BME280;3695;53.330;9.876;2022-07-01T12:58:18;105831.44;;;18.89;65.95
7309;BME280;3695;53.330;9.876;2022-07-01T13:00:47;105179.34;;;18.84;66.78
7309;BME280;3695;53.330;9.876;2022-07-01T13:03:18;105657.34;;;19.06;67.91
7309;BME280;3695;53.330;9.876;2022-07-01T13:05:45;104906.66;;;18.64;71.06
7309;BME280;3695;53.330;9.876;2022-07-01T13:08:13;105060.50;;;18.48;75.20
7309;BME280;3695;53.330;9.876;2022-07-01T13:10:39;105158.66;;;18.64;78.05
7309;BME280;3695;53.330;9.876;2022-07-01T13:13:07;104972.69;;;18.30;82.89
7309;BME280;3695;53.330;9.876;2022-07-01T13:15:34;105554.31;;;19.01;77.21
7309;BME280;3695;53.330;9.876;2022-07-01T13:18:01;105130.63;;;18.60;79.19